createdAt,value
2018-09-08T00:00:03.391Z,3.40
2018-09-08T00:02:35.937Z,3.23
2018-09-08T00:05:08.536Z,3.80
2018-09-08T00:07:41.091Z,3.13
2018-09-08T00:10:13.611Z,3.17
2018-09-08T00:12:46.167Z,2.80
2018-09-08T00:15:23.308Z,2.67
2018-09-08T00:18:00.546Z,2.40
2018-09-08T00:20:37.712Z,2.10
2018-09-08T00:23:14.996Z,2.20
2018-09-08T00:25:52.209Z,2.20
2018-09-08T00:28:29.603Z,2.43
2018-09-08T00:31:02.428Z,2.30
2018-09-08T00:33:35.013Z,2.70
2018-09-08T00:36:07.527Z,2.63
2018-09-08T00:38:40.590Z,2.43
2018-09-08T00:41:13.026Z,2.40
2018-09-08T00:43:45.632Z,2.43
2018-09-08T00:46:18.145Z,2.30
2018-09-08T00:48:50.726Z,2.13
2018-09-08T00:51:23.223Z,2.13
2018-09-08T00:53:55.733Z,2.30
2018-09-08T00:56:28.279Z,2.20
2018-09-08T00:59:06.667Z,2.23
2018-09-08T01:01:39.388Z,2.00
2018-09-08T01:04:11.922Z,1.83
2018-09-08T01:06:45.109Z,2.00
2018-09-08T01:09:17.786Z,2.27
2018-09-08T01:11:50.365Z,1.90
2018-09-08T01:14:22.872Z,2.13
2018-09-08T01:16:55.474Z,1.90
2018-09-08T01:19:28.016Z,1.50
2018-09-08T01:22:00.568Z,1.63
2018-09-08T01:24:34.638Z,1.87
2018-09-08T01:27:07.247Z,1.73
2018-09-08T01:29:39.859Z,1.87
2018-09-08T01:32:12.623Z,1.67
2018-09-08T01:34:45.131Z,1.37
2018-09-08T01:37:17.759Z,1.97
2018-09-08T01:39:50.242Z,1.30
2018-09-08T01:42:22.795Z,1.60
2018-09-08T01:44:55.277Z,1.50
2018-09-08T01:47:27.851Z,1.90
2018-09-08T01:50:00.404Z,1.90
2018-09-08T01:52:33.000Z,1.40
2018-09-08T01:55:05.450Z,1.47
2018-09-08T01:57:37.983Z,1.83
2018-09-08T02:00:11.502Z,1.40
2018-09-08T02:02:44.062Z,1.60
2018-09-08T02:05:16.643Z,1.30
2018-09-08T02:07:49.281Z,1.50
2018-09-08T02:10:21.761Z,1.30
2018-09-08T02:12:54.309Z,1.40
2018-09-08T02:15:26.794Z,1.23
2018-09-08T02:17:59.330Z,1.10
2018-09-08T02:20:31.916Z,1.50
2018-09-08T02:23:04.435Z,1.20
2018-09-08T02:25:36.972Z,1.33
2018-09-08T02:28:15.121Z,1.03
2018-09-08T02:30:47.568Z,1.20
2018-09-08T02:33:20.148Z,1.23
2018-09-08T02:35:52.690Z,1.30
2018-09-08T02:38:25.349Z,1.17
2018-09-08T02:40:57.845Z,1.20
2018-09-08T02:43:30.428Z,1.40
2018-09-08T02:46:02.932Z,1.00
2018-09-08T02:48:35.513Z,1.20
2018-09-08T02:51:04.499Z,1.13
2018-09-08T02:53:33.626Z,1.20
2018-09-08T02:56:02.619Z,1.43
2018-09-08T02:58:31.680Z,1.20
2018-09-08T03:01:00.713Z,1.10
2018-09-08T03:03:29.793Z,1.47
2018-09-08T03:05:58.793Z,1.37
2018-09-08T03:08:27.921Z,1.50
2018-09-08T03:10:56.929Z,1.10
2018-09-08T03:13:25.985Z,1.20
2018-09-08T03:15:54.981Z,1.10
2018-09-08T03:18:24.048Z,1.10
2018-09-08T03:20:53.047Z,1.47
2018-09-08T03:23:22.160Z,1.30
2018-09-08T03:25:51.160Z,1.43
2018-09-08T03:28:20.256Z,1.60
2018-09-08T03:30:49.264Z,1.43
2018-09-08T03:33:18.337Z,1.70
2018-09-08T03:35:47.307Z,1.60
2018-09-08T03:38:36.449Z,1.40
2018-09-08T03:41:06.851Z,1.50
2018-09-08T03:43:35.915Z,1.50
2018-09-08T03:46:04.954Z,1.63
2018-09-08T03:48:34.020Z,1.83
2018-09-08T03:51:03.060Z,1.70
2018-09-08T03:53:32.130Z,1.80
2018-09-08T03:56:01.196Z,2.00
2018-09-08T03:58:30.444Z,1.80
2018-09-08T04:00:59.523Z,1.93
2018-09-08T04:03:32.123Z,2.00
2018-09-08T04:06:04.639Z,2.07
2018-09-08T04:08:37.265Z,1.90
2018-09-08T04:11:10.002Z,1.77
2018-09-08T04:13:42.685Z,2.20
2018-09-08T04:16:15.175Z,1.63
2018-09-08T04:18:47.813Z,2.00
2018-09-08T04:21:20.371Z,1.90
2018-09-08T04:23:53.038Z,2.40
2018-09-08T04:26:25.659Z,1.90
2018-09-08T04:28:58.230Z,1.97
2018-09-08T04:31:30.691Z,2.00
2018-09-08T04:34:03.261Z,2.20
2018-09-08T04:36:35.787Z,2.40
2018-09-08T04:39:12.296Z,2.00
2018-09-08T04:41:44.849Z,2.40
2018-09-08T04:44:17.422Z,2.30
2018-09-08T04:46:49.944Z,2.10
2018-09-08T04:49:22.601Z,2.17
2018-09-08T04:51:55.174Z,2.17
2018-09-08T04:54:27.734Z,1.90
2018-09-08T04:57:00.240Z,2.30
2018-09-08T04:59:32.837Z,2.20
2018-09-08T05:02:05.410Z,2.07
2018-09-08T05:04:37.979Z,1.80
2018-09-08T05:07:10.436Z,2.30
2018-09-08T05:09:43.062Z,2.50
2018-09-08T05:12:15.663Z,1.90
2018-09-08T05:14:48.247Z,2.40
2018-09-08T05:17:20.906Z,2.43
2018-09-08T05:19:53.448Z,2.50
2018-09-08T05:22:25.916Z,2.40
2018-09-08T05:24:58.534Z,2.53
2018-09-08T05:27:31.117Z,2.67
2018-09-08T05:30:03.995Z,3.20
2018-09-08T05:32:36.531Z,2.63
2018-09-08T05:35:09.779Z,3.03
2018-09-08T05:37:42.243Z,3.17
2018-09-08T05:40:14.796Z,3.37
2018-09-08T05:42:47.647Z,3.17
2018-09-08T05:45:20.316Z,3.10
2018-09-08T05:47:52.833Z,3.27
2018-09-08T05:50:25.460Z,3.10
2018-09-08T05:52:57.949Z,3.40
2018-09-08T05:55:30.387Z,3.30
2018-09-08T05:58:02.900Z,3.03
2018-09-08T06:00:35.448Z,3.87
2018-09-08T06:03:07.937Z,3.27
2018-09-08T06:05:40.572Z,3.33
2018-09-08T06:08:13.057Z,3.23
2018-09-08T06:10:45.572Z,3.07
2018-09-08T06:13:18.096Z,3.30
2018-09-08T06:15:50.657Z,3.30
2018-09-08T06:18:23.173Z,3.07
2018-09-08T06:20:55.809Z,3.40
2018-09-08T06:23:28.436Z,3.50
2018-09-08T06:26:01.006Z,3.50
2018-09-08T06:28:34.160Z,3.53
2018-09-08T06:31:06.942Z,3.40
2018-09-08T06:33:39.760Z,3.67
2018-09-08T06:36:12.578Z,3.40
2018-09-08T06:38:45.456Z,3.20
2018-09-08T06:41:18.045Z,3.20
2018-09-08T06:43:53.028Z,3.47
2018-09-08T06:46:25.598Z,3.23
2018-09-08T06:48:58.063Z,3.10
2018-09-08T06:51:30.675Z,3.60
2018-09-08T06:54:03.236Z,3.67
2018-09-08T06:56:35.889Z,3.63
2018-09-08T06:59:08.445Z,3.50
2018-09-08T07:01:40.992Z,3.17
2018-09-08T07:04:13.502Z,3.50
2018-09-08T07:06:46.053Z,3.13
2018-09-08T07:09:18.565Z,3.53
2018-09-08T07:11:51.205Z,3.03
2018-09-08T07:14:23.657Z,3.70
2018-09-08T07:16:56.228Z,3.20
2018-09-08T07:19:29.773Z,2.80
2018-09-08T07:22:02.309Z,3.20
2018-09-08T07:24:34.799Z,3.10
2018-09-08T07:27:07.501Z,3.20
2018-09-08T07:29:40.038Z,3.20
2018-09-08T07:32:12.687Z,3.37
2018-09-08T07:34:45.235Z,3.07
2018-09-08T07:37:17.901Z,3.20
2018-09-08T07:39:50.404Z,3.57
2018-09-08T07:42:23.028Z,3.30
2018-09-08T07:44:55.567Z,3.20
2018-09-08T07:47:28.127Z,3.27
2018-09-08T07:50:00.727Z,2.97
2018-09-08T07:52:33.248Z,3.00
2018-09-08T07:55:05.757Z,2.93
2018-09-08T07:57:38.291Z,3.57
2018-09-08T08:00:10.981Z,3.20
2018-09-08T08:02:43.645Z,2.47
2018-09-08T08:05:16.144Z,2.97
2018-09-08T08:07:48.701Z,2.63
2018-09-08T08:10:21.231Z,2.90
2018-09-08T08:12:53.782Z,2.97
2018-09-08T08:15:26.329Z,3.00
2018-09-08T08:17:58.848Z,3.17
2018-09-08T08:20:31.346Z,3.30
2018-09-08T08:23:03.961Z,3.30
2018-09-08T08:25:36.437Z,3.00
2018-09-08T08:28:09.092Z,3.60
2018-09-08T08:30:41.716Z,3.40
2018-09-08T08:33:14.212Z,3.10
2018-09-08T08:35:46.708Z,3.00
2018-09-08T08:38:19.299Z,3.63
2018-09-08T08:40:51.757Z,3.40
2018-09-08T08:43:24.349Z,3.00
2018-09-08T08:45:56.876Z,3.37
2018-09-08T08:48:29.451Z,3.47
2018-09-08T08:51:23.306Z,3.30
2018-09-08T08:54:20.020Z,3.20
2018-09-08T08:56:52.550Z,3.43
2018-09-08T08:59:25.141Z,3.30
2018-09-08T09:02:02.044Z,3.30
2018-09-08T09:04:34.526Z,3.00
2018-09-08T09:07:07.305Z,3.07
2018-09-08T09:09:39.777Z,3.00
2018-09-08T09:12:12.316Z,3.40
2018-09-08T09:14:44.702Z,3.23
2018-09-08T09:17:17.354Z,3.07
2018-09-08T09:20:11.140Z,3.03
2018-09-08T09:23:05.666Z,3.03
2018-09-08T09:25:37.965Z,3.03
2018-09-08T09:28:10.696Z,3.20
2018-09-08T09:30:43.629Z,3.17
2018-09-08T09:33:18.031Z,2.57
2018-09-08T09:35:50.729Z,2.60
2018-09-08T09:38:23.752Z,2.60
2018-09-08T09:40:56.821Z,2.37
2018-09-08T09:43:29.579Z,2.27
2018-09-08T09:46:02.221Z,2.07
2018-09-08T09:48:34.977Z,1.90
2018-09-08T09:51:07.610Z,1.90
2018-09-08T09:53:40.327Z,2.17
2018-09-08T09:56:12.979Z,1.90
2018-09-08T09:58:45.660Z,2.30
2018-09-08T10:01:21.851Z,2.23
2018-09-08T10:03:54.489Z,2.30
2018-09-08T10:06:27.023Z,2.33
2018-09-08T10:08:59.724Z,1.90
2018-09-08T10:11:32.260Z,2.10
2018-09-08T10:14:04.823Z,1.90
2018-09-08T10:16:37.342Z,1.90
2018-09-08T10:19:09.891Z,2.20
2018-09-08T10:21:42.831Z,1.87
2018-09-08T10:24:15.652Z,1.83
2018-09-08T10:26:48.278Z,1.90
2018-09-08T10:29:20.886Z,1.80
2018-09-08T10:31:53.339Z,2.20
2018-09-08T10:34:25.975Z,2.00
2018-09-08T10:36:58.476Z,1.73
2018-09-08T10:39:30.996Z,1.97
2018-09-08T10:42:03.418Z,1.60
2018-09-08T10:44:36.000Z,1.50
2018-09-08T10:47:08.556Z,1.70
2018-09-08T10:49:41.181Z,1.63
2018-09-08T10:52:31.445Z,1.80
2018-09-08T10:55:04.045Z,1.77
2018-09-08T10:57:36.521Z,1.80
2018-09-08T11:00:09.882Z,1.60
2018-09-08T11:02:42.710Z,1.60
2018-09-08T11:05:15.021Z,1.50
2018-09-08T11:07:47.472Z,1.83
2018-09-08T11:10:20.024Z,1.77
2018-09-08T11:12:52.533Z,1.50
2018-09-08T11:15:25.094Z,2.07
2018-09-08T11:17:57.582Z,1.60
2018-09-08T11:20:30.151Z,1.20
2018-09-08T11:23:02.558Z,1.73
2018-09-08T11:25:35.077Z,1.40
2018-09-08T11:28:07.691Z,1.57
2018-09-08T11:30:40.344Z,1.50
2018-09-08T11:33:12.779Z,1.40
2018-09-08T11:35:45.361Z,1.33
2018-09-08T11:38:18.035Z,1.50
2018-09-08T11:40:50.503Z,1.43
2018-09-08T11:43:23.051Z,1.30
2018-09-08T11:45:55.788Z,1.20
2018-09-08T11:48:28.490Z,1.27
2018-09-08T11:51:02.640Z,1.70
2018-09-08T11:53:36.499Z,1.70
2018-09-08T11:56:09.563Z,1.20
2018-09-08T11:58:42.627Z,1.50
2018-09-08T12:01:18.248Z,1.57
2018-09-08T12:03:53.041Z,1.10
2018-09-08T12:06:27.470Z,1.00
2018-09-08T12:09:00.184Z,1.10
2018-09-08T12:11:32.790Z,1.20
2018-09-08T12:14:12.312Z,1.10
2018-09-08T12:16:50.611Z,1.23
2018-09-08T12:19:23.210Z,11.40
2018-09-08T12:21:55.646Z,3.53
2018-09-08T12:24:28.214Z,1.90
2018-09-08T12:27:00.913Z,1.97
2018-09-08T12:29:33.497Z,1.40
2018-09-08T12:32:05.998Z,1.20
2018-09-08T12:34:43.142Z,1.40
2018-09-08T12:37:20.198Z,1.30
2018-09-08T12:39:55.244Z,1.17
2018-09-08T12:42:32.185Z,1.53
2018-09-08T12:45:10.068Z,1.40
2018-09-08T12:47:42.734Z,1.60
2018-09-08T12:50:15.503Z,1.30
2018-09-08T12:52:48.409Z,1.40
2018-09-08T12:55:21.001Z,1.10
2018-09-08T12:57:55.594Z,1.00
2018-09-08T13:00:29.360Z,1.00
2018-09-08T13:03:01.924Z,1.20
2018-09-08T13:05:34.453Z,0.87
2018-09-08T13:08:07.394Z,1.30
2018-09-08T13:10:39.894Z,0.90
2018-09-08T13:13:12.682Z,1.07
2018-09-08T13:15:45.458Z,0.63
2018-09-08T13:18:17.970Z,1.00
2018-09-08T13:20:50.606Z,0.90
2018-09-08T13:23:38.425Z,1.10
2018-09-08T13:26:30.128Z,0.90
2018-09-08T13:29:04.098Z,0.80
2018-09-08T13:31:42.567Z,0.90
2018-09-08T13:34:16.611Z,1.03
2018-09-08T13:36:49.185Z,1.03
2018-09-08T13:39:23.080Z,1.13
2018-09-08T13:41:55.673Z,1.40
2018-09-08T13:44:30.836Z,1.53
2018-09-08T13:47:04.192Z,1.00
2018-09-08T13:49:36.777Z,1.97
2018-09-08T13:52:13.318Z,1.00
2018-09-08T13:54:49.794Z,1.20
2018-09-08T13:57:22.357Z,1.63
2018-09-08T13:59:54.866Z,1.00
2018-09-08T14:02:27.369Z,1.60
2018-09-08T14:05:00.700Z,1.53
2018-09-08T14:07:33.237Z,1.60
2018-09-08T14:10:05.843Z,1.47
2018-09-08T14:12:38.735Z,1.10
2018-09-08T14:15:36.588Z,1.33
2018-09-08T14:18:09.744Z,1.70
2018-09-08T14:20:42.251Z,1.60
2018-09-08T14:23:15.530Z,1.40
2018-09-08T14:25:48.176Z,1.20
2018-09-08T14:28:20.756Z,1.20
2018-09-08T14:30:53.323Z,1.50
2018-09-08T14:33:25.878Z,1.33
2018-09-08T14:35:58.337Z,1.60
2018-09-08T14:38:30.776Z,1.40
2018-09-08T14:41:03.296Z,1.33
2018-09-08T14:43:35.996Z,1.57
2018-09-08T14:46:08.535Z,1.17
2018-09-08T14:48:41.022Z,1.50
2018-09-08T14:51:13.657Z,1.30
2018-09-08T14:53:46.075Z,1.43
2018-09-08T14:56:18.604Z,1.40
2018-09-08T14:58:51.230Z,1.03
2018-09-08T15:01:23.784Z,1.30
2018-09-08T15:03:56.224Z,1.30
2018-09-08T15:06:28.800Z,1.43
2018-09-08T15:09:01.234Z,1.23
2018-09-08T15:11:33.742Z,1.40
2018-09-08T15:14:06.393Z,1.10
2018-09-08T15:16:38.908Z,1.57
2018-09-08T15:19:11.450Z,1.30
2018-09-08T15:21:44.027Z,1.60
2018-09-08T15:24:16.510Z,1.30
2018-09-08T15:26:49.120Z,1.30
2018-09-08T15:29:21.638Z,1.50
2018-09-08T15:31:54.151Z,1.50
2018-09-08T15:34:26.619Z,1.50
2018-09-08T15:36:59.179Z,1.90
2018-09-08T15:39:31.748Z,1.30
2018-09-08T15:42:04.332Z,1.43
2018-09-08T15:44:36.827Z,1.73
2018-09-08T15:47:09.383Z,1.60
2018-09-08T15:49:41.900Z,1.50
2018-09-08T15:52:14.421Z,1.40
2018-09-08T15:54:46.943Z,1.50
2018-09-08T15:57:19.485Z,1.50
2018-09-08T15:59:51.998Z,1.73
2018-09-08T16:02:24.578Z,1.60
2018-09-08T16:04:57.057Z,1.20
2018-09-08T16:07:29.656Z,1.50
2018-09-08T16:10:02.132Z,1.60
2018-09-08T16:12:35.024Z,1.80
2018-09-08T16:15:07.659Z,1.40
2018-09-08T16:17:40.173Z,1.30
2018-09-08T16:20:12.673Z,1.60
2018-09-08T16:22:45.238Z,1.93
2018-09-08T16:25:17.717Z,1.80
2018-09-08T16:27:50.398Z,2.00
2018-09-08T16:30:22.917Z,2.87
2018-09-08T16:32:55.502Z,2.27
2018-09-08T16:35:27.937Z,1.60
2018-09-08T16:38:00.514Z,1.77
2018-09-08T16:40:32.982Z,1.60
2018-09-08T16:43:05.561Z,1.80
2018-09-08T16:45:38.050Z,1.80
2018-09-08T16:48:10.625Z,1.80
2018-09-08T16:50:43.118Z,1.90
2018-09-08T16:53:15.714Z,1.67
2018-09-08T16:55:48.686Z,2.03
2018-09-08T16:58:21.290Z,1.57
2018-09-08T17:00:53.806Z,1.70
2018-09-08T17:03:26.365Z,2.13
2018-09-08T17:05:58.868Z,2.10
2018-09-08T17:08:31.482Z,1.70
2018-09-08T17:11:03.956Z,1.70
2018-09-08T17:13:36.537Z,1.83
2018-09-08T17:16:09.463Z,1.87
2018-09-08T17:18:42.393Z,3.17
2018-09-08T17:21:15.071Z,2.00
2018-09-08T17:23:47.927Z,2.97
2018-09-08T17:26:20.777Z,2.80
2018-09-08T17:28:53.585Z,2.80
2018-09-08T17:31:26.314Z,2.73
2018-09-08T17:33:59.131Z,2.40
2018-09-08T17:36:32.027Z,2.27
2018-09-08T17:39:05.008Z,2.40
2018-09-08T17:41:37.717Z,2.60
2018-09-08T17:44:10.728Z,2.77
2018-09-08T17:46:43.411Z,2.40
2018-09-08T17:49:16.237Z,1.63
2018-09-08T17:51:48.939Z,1.97
2018-09-08T17:54:21.658Z,2.40
2018-09-08T17:56:54.388Z,2.27
2018-09-08T17:59:27.204Z,2.50
2018-09-08T18:02:00.185Z,2.47
2018-09-08T18:04:32.986Z,2.70
2018-09-08T18:07:05.754Z,2.00
2018-09-08T18:09:38.629Z,2.10
2018-09-08T18:12:11.435Z,2.00
2018-09-08T18:14:44.380Z,2.23
2018-09-08T18:17:17.328Z,1.80
2018-09-08T18:19:50.109Z,2.00
2018-09-08T18:22:22.858Z,2.10
2018-09-08T18:24:55.786Z,2.20
2018-09-08T18:27:28.616Z,2.30
2018-09-08T18:30:01.443Z,2.60
2018-09-08T18:32:34.150Z,3.43
2018-09-08T18:35:07.292Z,3.73
2018-09-08T18:37:40.086Z,4.63
2018-09-08T18:40:13.892Z,3.93
2018-09-08T18:42:46.704Z,4.07
2018-09-08T18:45:19.478Z,3.87
2018-09-08T18:47:52.284Z,3.40
2018-09-08T18:50:25.208Z,3.40
2018-09-08T18:52:58.129Z,3.20
2018-09-08T18:55:34.875Z,2.60
2018-09-08T18:58:07.842Z,3.20
2018-09-08T19:00:40.881Z,2.87
2018-09-08T19:03:13.430Z,2.80
2018-09-08T19:05:46.001Z,2.90
2018-09-08T19:08:18.516Z,2.40
2018-09-08T19:10:51.201Z,2.60
2018-09-08T19:13:23.700Z,2.63
2018-09-08T19:15:56.890Z,3.03
2018-09-08T19:18:29.299Z,2.70
2018-09-08T19:21:01.865Z,3.00
2018-09-08T19:23:34.274Z,3.23
2018-09-08T19:26:06.925Z,3.30
2018-09-08T19:28:39.595Z,3.10
2018-09-08T19:31:12.201Z,3.80
2018-09-08T19:33:44.644Z,3.83
2018-09-08T19:36:17.192Z,4.40
2018-09-08T19:38:49.754Z,5.03
2018-09-08T19:41:22.353Z,5.17
2018-09-08T19:43:54.865Z,5.50
2018-09-08T19:46:32.207Z,5.77
2018-09-08T19:49:04.716Z,4.63
2018-09-08T19:51:37.334Z,4.60
2018-09-08T19:54:09.995Z,4.50
2018-09-08T19:56:47.251Z,3.80
2018-09-08T19:59:19.789Z,4.37
2018-09-08T20:01:52.382Z,4.20
2018-09-08T20:04:24.869Z,4.40
2018-09-08T20:06:57.437Z,4.67
2018-09-08T20:09:29.992Z,5.33
2018-09-08T20:12:02.738Z,4.73
2018-09-08T20:14:35.271Z,3.83
2018-09-08T20:17:08.042Z,4.33
2018-09-08T20:19:40.974Z,3.90
2018-09-08T20:22:13.581Z,3.40
2018-09-08T20:24:46.049Z,3.13
2018-09-08T20:27:18.831Z,3.40
2018-09-08T20:29:51.440Z,4.20
2018-09-08T20:32:24.043Z,3.40
2018-09-08T20:34:56.661Z,3.27
2018-09-08T20:37:29.245Z,3.63
2018-09-08T20:40:02.029Z,3.60
2018-09-08T20:42:34.750Z,3.50
2018-09-08T20:45:07.534Z,3.73
2018-09-08T20:47:40.881Z,3.80
2018-09-08T20:50:13.486Z,4.20
2018-09-08T20:52:46.451Z,4.10
2018-09-08T20:55:18.989Z,4.07
2018-09-08T20:57:51.590Z,4.00
2018-09-08T21:00:24.086Z,3.90
2018-09-08T21:02:57.515Z,3.90
2018-09-08T21:05:30.452Z,4.23
2018-09-08T21:08:03.048Z,4.47
2018-09-08T21:10:41.016Z,3.70
2018-09-08T21:13:13.662Z,3.90
2018-09-08T21:15:46.201Z,3.90
2018-09-08T21:18:18.974Z,4.13
2018-09-08T21:20:51.621Z,3.80
2018-09-08T21:23:24.332Z,3.90
2018-09-08T21:25:56.901Z,3.43
2018-09-08T21:28:29.586Z,3.80
2018-09-08T21:31:02.050Z,3.80
2018-09-08T21:33:34.615Z,3.93
2018-09-08T21:36:07.129Z,3.63
2018-09-08T21:38:39.826Z,3.93
2018-09-08T21:41:12.387Z,3.87
2018-09-08T21:43:45.022Z,3.23
2018-09-08T21:46:17.623Z,3.60
2018-09-08T21:48:50.217Z,3.27
2018-09-08T21:51:22.830Z,3.50
2018-09-08T21:53:55.516Z,3.03
2018-09-08T21:56:27.995Z,2.83
2018-09-08T21:59:00.591Z,3.17
2018-09-08T22:01:33.059Z,3.10
2018-09-08T22:04:05.672Z,2.80
2018-09-08T22:06:38.239Z,3.20
2018-09-08T22:09:12.018Z,2.93
2018-09-08T22:11:44.513Z,3.10
2018-09-08T22:14:17.071Z,2.90
2018-09-08T22:16:49.508Z,3.13
2018-09-08T22:19:22.032Z,3.07
2018-09-08T22:21:54.543Z,2.90
2018-09-08T22:24:27.125Z,3.10
2018-09-08T22:26:59.680Z,3.17
2018-09-08T22:29:32.268Z,3.13
2018-09-08T22:32:04.719Z,2.83
2018-09-08T22:34:37.262Z,3.40
2018-09-08T22:37:10.100Z,3.10
2018-09-08T22:39:42.635Z,3.10
2018-09-08T22:42:15.110Z,3.70
2018-09-08T22:44:47.697Z,3.63
2018-09-08T22:47:20.207Z,3.40
2018-09-08T22:49:52.800Z,3.27
2018-09-08T22:52:25.291Z,3.40
2018-09-08T22:54:57.932Z,3.00
2018-09-08T22:57:30.401Z,3.00
2018-09-08T23:00:02.945Z,3.57
2018-09-08T23:02:35.460Z,3.40
2018-09-08T23:05:08.089Z,3.30
2018-09-08T23:07:40.607Z,2.97
2018-09-08T23:10:13.149Z,3.27
2018-09-08T23:12:45.601Z,3.10
2018-09-08T23:15:18.121Z,3.50
2018-09-08T23:17:50.699Z,3.13
2018-09-08T23:20:23.272Z,3.47
2018-09-08T23:22:55.739Z,3.53
2018-09-08T23:25:28.293Z,3.40
2018-09-08T23:28:00.884Z,3.53
2018-09-08T23:30:33.422Z,3.60
2018-09-08T23:33:05.885Z,3.73
2018-09-08T23:35:38.448Z,3.60
2018-09-08T23:38:10.962Z,4.07
2018-09-08T23:40:43.568Z,3.87
2018-09-08T23:43:16.040Z,3.77
2018-09-08T23:45:48.640Z,4.53
2018-09-08T23:48:21.217Z,4.20
2018-09-08T23:50:54.728Z,4.60
2018-09-08T23:53:27.901Z,4.20
2018-09-08T23:56:00.618Z,5.03
2018-09-08T23:58:33.336Z,4.67
